Ship Status Report: callsign BR3037

sailwx.info

Track history (hours):
 
Tides and Currents Weather Stations Pressure Air Temp Water Temp Dewpoint Dewpoint Depression Visibility Wind Speed Wind Dir Waves Ship Positions

Oceanographic research ship ()

Last reported at 2018-Jun-20 07:45 UTC. Time now 2018-Jun-22 07:38 UTC.
Position N 22°36' E 120°17'.

Length 39 m.

Type: Other ship. MMSI: 416926000.

Date/timePositionNaut miles runAvg speedWind from/ knotsBaromVisibWave heightAir tempDewpointWater temp
2018-Jun-20 07:45N 22°36' E 120°17'0 0.3
2018-Jun-20 07:26N 22°36' E 120°17'2 5.4
2018-Jun-20 07:01N 22°37' E 120°15'2 4.3
2018-Jun-20 06:27N 22°36' E 120°17'0 0.0
2018-Jun-20 05:57N 22°36' E 120°17'  
2018-Jun-11 23:43N 22°36' E 120°17'2 8.4
2018-Jun-11 23:30N 22°37' E 120°15'3 6.6
2018-Jun-11 23:00N 22°35' E 120°12'5 9.7
2018-Jun-11 22:28N 22°30' E 120°14'2 0.1
2018-Jun-11 09:18N 22°28' E 120°13'311.6
2018-Jun-11 09:00N 22°31' E 120°11'2 3.9
2018-Jun-11 08:31N 22°33' E 120°11'1 1.8
2018-Jun-11 07:58N 22°34' E 120°11'1 1.8
2018-Jun-11 07:29N 22°35' E 120°10'2 4.0
2018-Jun-11 07:00N 22°35' E 120°13'1 2.1
2018-Jun-11 06:30N 22°36' E 120°12'1 1.6
2018-Jun-11 06:00N 22°36' E 120°12'3 6.2
2018-Jun-11 05:30N 22°39' E 120°12'2 3.2
2018-Jun-11 04:56N 22°39' E 120°14'1 1.4
2018-Jun-11 04:25N 22°38' E 120°14'1 2.7
2018-Jun-11 03:59N 22°38' E 120°15'3 0.1
2018-Jun-10 08:00N 22°36' E 120°17'  
Track history (hours):
 
Tides and Currents Weather Stations Pressure Air Temp Water Temp Dewpoint Dewpoint Depression Visibility Wind Speed Wind Dir Waves Ship Positions

Oceanographic research ship ()

Last reported at 2018-Jun-20 07:45 UTC. Time now 2018-Jun-22 07:38 UTC.
Position N 22°36' E 120°17'.

Length 39 m.

Type: Other ship. MMSI: 416926000.

Date/timePositionNaut miles runAvg speedWind from/ knotsBaromVisibWave heightAir tempDewpointWater temp
2018-Jun-20 07:45N 22°36' E 120°17'0 0.3
2018-Jun-20 07:26N 22°36' E 120°17'2 5.4
2018-Jun-20 07:01N 22°37' E 120°15'2 4.3
2018-Jun-20 06:27N 22°36' E 120°17'0 0.0
2018-Jun-20 05:57N 22°36' E 120°17'  
2018-Jun-11 23:43N 22°36' E 120°17'2 8.4
2018-Jun-11 23:30N 22°37' E 120°15'3 6.6
2018-Jun-11 23:00N 22°35' E 120°12'5 9.7
2018-Jun-11 22:28N 22°30' E 120°14'2 0.1
2018-Jun-11 09:18N 22°28' E 120°13'311.6
2018-Jun-11 09:00N 22°31' E 120°11'2 3.9
2018-Jun-11 08:31N 22°33' E 120°11'1 1.8
2018-Jun-11 07:58N 22°34' E 120°11'1 1.8
2018-Jun-11 07:29N 22°35' E 120°10'2 4.0
2018-Jun-11 07:00N 22°35' E 120°13'1 2.1
2018-Jun-11 06:30N 22°36' E 120°12'1 1.6
2018-Jun-11 06:00N 22°36' E 120°12'3 6.2
2018-Jun-11 05:30N 22°39' E 120°12'2 3.2
2018-Jun-11 04:56N 22°39' E 120°14'1 1.4
2018-Jun-11 04:25N 22°38' E 120°14'1 2.7
2018-Jun-11 03:59N 22°38' E 120°15'3 0.1
2018-Jun-10 08:00N 22°36' E 120°17'  

Dump ship's entire track history